createdAt,value
2022-12-01T00:00:06.898Z,19.45
2022-12-01T00:02:33.401Z,19.41
2022-12-01T04:08:16.446Z,19.11
2022-12-01T04:10:42.833Z,19.07
2022-12-01T04:13:09.225Z,19.03
2022-12-01T04:15:35.605Z,19.05
2022-12-01T04:18:01.989Z,19.02
2022-12-01T04:20:28.359Z,19.02
2022-12-01T04:22:54.733Z,19.00
2022-12-01T04:25:21.091Z,19.01
2022-12-01T04:27:47.471Z,18.99
2022-12-01T04:30:13.849Z,19.03
2022-12-01T04:32:40.248Z,19.09
2022-12-01T04:35:06.619Z,19.08
2022-12-01T04:37:32.995Z,19.11
2022-12-01T04:39:59.379Z,19.08
2022-12-01T04:42:25.751Z,19.04
2022-12-01T04:44:52.111Z,19.11
2022-12-01T04:47:18.473Z,19.06
2022-12-01T04:49:44.859Z,19.02
2022-12-01T04:52:11.243Z,18.98
2022-12-01T04:54:37.613Z,19.07
2022-12-01T04:57:03.999Z,19.09
2022-12-01T04:59:30.372Z,19.15
2022-12-01T05:01:56.860Z,19.05
2022-12-01T05:04:23.265Z,19.05
2022-12-01T05:06:49.646Z,19.03
2022-12-01T05:09:17.823Z,19.12
2022-12-01T05:11:44.414Z,19.10
2022-12-01T05:14:10.797Z,19.03
2022-12-01T05:16:37.203Z,19.02
2022-12-01T05:19:03.645Z,19.03
2022-12-01T05:21:30.038Z,19.05
2022-12-01T05:23:56.409Z,19.05
2022-12-01T05:26:22.775Z,19.00
2022-12-01T05:28:49.139Z,19.10
2022-12-01T05:31:15.555Z,19.05
2022-12-01T05:33:41.982Z,19.00
2022-12-01T05:36:08.378Z,19.03
2022-12-01T05:38:34.739Z,19.02
2022-12-01T05:41:01.088Z,19.03
2022-12-01T05:43:29.549Z,19.01
2022-12-01T05:45:56.132Z,19.04
2022-12-01T05:48:22.554Z,18.99
2022-12-01T05:50:48.906Z,18.98
2022-12-01T05:53:15.350Z,19.06
2022-12-01T05:55:41.719Z,19.03
2022-12-01T05:58:08.118Z,19.02
2022-12-01T06:00:34.480Z,18.97
2022-12-01T06:03:00.840Z,18.99
2022-12-01T06:05:27.195Z,18.99
2022-12-01T06:07:53.597Z,19.01
2022-12-01T06:10:19.997Z,19.05
2022-12-01T06:12:46.346Z,19.04
2022-12-01T06:15:12.717Z,19.07
2022-12-01T06:17:40.516Z,19.03
2022-12-01T06:20:07.085Z,19.00
2022-12-01T06:22:33.453Z,19.06
2022-12-01T06:24:59.814Z,19.06
2022-12-01T06:27:26.191Z,19.08
2022-12-01T06:29:53.073Z,19.06
2022-12-01T06:32:19.731Z,19.07
2022-12-01T06:34:46.102Z,19.03
2022-12-01T06:37:12.487Z,19.03
2022-12-01T06:39:38.877Z,19.02
2022-12-01T06:42:05.274Z,19.05
2022-12-01T06:44:31.647Z,19.04
2022-12-01T06:46:58.014Z,19.08
2022-12-01T06:49:24.388Z,19.05
2022-12-01T06:51:50.761Z,19.04
2022-12-01T06:54:17.125Z,19.02
2022-12-01T06:56:43.500Z,19.02
2022-12-01T06:59:10.068Z,19.06
2022-12-01T07:01:36.746Z,19.05
2022-12-01T07:04:03.193Z,19.08
2022-12-01T07:06:29.570Z,19.01
2022-12-01T07:08:55.940Z,18.98
2022-12-01T07:11:22.319Z,19.01
2022-12-01T07:13:48.701Z,19.03
2022-12-01T07:16:15.095Z,19.00
2022-12-01T07:18:41.487Z,19.00
2022-12-01T07:21:07.854Z,19.04
2022-12-01T07:23:34.240Z,19.01
2022-12-01T07:26:00.600Z,19.02
2022-12-01T07:28:26.982Z,19.05
2022-12-01T07:30:53.375Z,19.03
2022-12-01T07:33:19.756Z,19.03
2022-12-01T07:35:46.118Z,19.07
2022-12-01T07:38:13.311Z,19.10
2022-12-01T07:40:41.923Z,19.04
2022-12-01T07:43:08.310Z,19.08
2022-12-01T07:45:34.683Z,19.16
2022-12-01T07:48:01.074Z,19.08
2022-12-01T07:50:27.465Z,19.15
2022-12-01T07:52:53.834Z,19.16
2022-12-01T07:55:20.220Z,19.14
2022-12-01T07:57:46.580Z,19.17
2022-12-01T08:00:12.950Z,19.09
2022-12-01T08:02:39.381Z,19.08
2022-12-01T08:05:05.783Z,19.09
2022-12-01T08:07:32.252Z,19.08
2022-12-01T08:09:58.767Z,19.13
2022-12-01T08:12:25.205Z,19.14
2022-12-01T08:14:51.650Z,19.14
2022-12-01T08:17:18.047Z,19.11
2022-12-01T08:19:44.463Z,19.10
2022-12-01T08:22:11.208Z,19.11
2022-12-01T08:24:37.780Z,19.09
2022-12-01T08:27:04.246Z,19.12
2022-12-01T08:29:30.687Z,19.14
2022-12-01T08:31:57.113Z,19.19
2022-12-01T08:34:23.550Z,19.15
2022-12-01T08:36:49.985Z,19.19
2022-12-01T08:39:16.434Z,19.18
2022-12-01T08:41:42.867Z,19.10
2022-12-01T08:44:09.383Z,19.19
2022-12-01T08:46:36.056Z,19.15
2022-12-01T08:49:02.596Z,19.22
2022-12-01T08:51:29.021Z,19.19
2022-12-01T08:53:55.432Z,19.19
2022-12-01T08:56:21.818Z,19.17
2022-12-01T08:58:48.186Z,19.17
2022-12-01T09:01:14.547Z,19.20
2022-12-01T09:03:40.919Z,19.15
2022-12-01T09:06:07.278Z,19.24
2022-12-01T09:08:33.637Z,19.26
2022-12-01T09:11:00.018Z,19.23
2022-12-01T09:13:26.389Z,19.23
2022-12-01T09:15:52.824Z,19.21
2022-12-01T09:18:19.251Z,19.24
2022-12-01T09:20:45.626Z,19.21
2022-12-01T09:23:12.014Z,19.18
2022-12-01T09:25:38.409Z,19.25
2022-12-01T09:28:04.789Z,19.23
2022-12-01T09:30:31.167Z,19.20
2022-12-01T09:32:57.543Z,19.26
2022-12-01T09:35:23.914Z,19.28
2022-12-01T09:37:50.305Z,19.28
2022-12-01T09:40:16.706Z,19.28
2022-12-01T09:42:43.067Z,19.31
2022-12-01T09:45:09.420Z,19.32
2022-12-01T09:47:35.812Z,19.32
2022-12-01T09:50:02.200Z,19.28
2022-12-01T09:52:28.579Z,19.30
2022-12-01T09:54:54.970Z,19.31
2022-12-01T09:57:21.353Z,19.31
2022-12-01T09:59:48.060Z,19.32
2022-12-01T10:02:14.677Z,19.33
2022-12-01T10:04:41.077Z,19.38
2022-12-01T10:07:07.451Z,19.38
2022-12-01T10:09:33.823Z,19.36
2022-12-01T10:12:00.193Z,19.29
2022-12-01T10:14:26.570Z,19.31
2022-12-01T10:16:52.940Z,19.27
2022-12-01T10:19:19.298Z,19.24
2022-12-01T10:21:45.673Z,19.24
2022-12-01T10:24:12.047Z,19.28
2022-12-01T10:26:38.431Z,19.25
2022-12-01T10:29:04.822Z,19.29
2022-12-01T10:31:31.255Z,19.29
2022-12-01T10:33:57.659Z,19.30
2022-12-01T10:36:24.055Z,19.33
2022-12-01T10:38:50.451Z,19.28
2022-12-01T10:41:16.845Z,19.29
2022-12-01T10:43:43.221Z,19.37
2022-12-01T10:46:09.658Z,19.31
2022-12-01T10:48:36.076Z,19.27
2022-12-01T10:51:02.454Z,19.28
2022-12-01T10:53:28.847Z,19.33
2022-12-01T10:55:55.238Z,19.34
2022-12-01T10:58:21.618Z,19.30
2022-12-01T11:01:03.519Z,19.30
2022-12-01T11:03:30.309Z,19.30
2022-12-01T11:05:56.923Z,19.27
2022-12-01T11:08:23.306Z,19.30
2022-12-01T11:10:49.680Z,19.29
2022-12-01T11:13:16.065Z,19.34
2022-12-01T11:15:42.455Z,19.30
2022-12-01T11:18:08.847Z,19.29
2022-12-01T11:20:35.267Z,19.28
2022-12-01T11:23:01.703Z,19.31
2022-12-01T11:25:28.083Z,19.29
2022-12-01T11:27:54.519Z,19.31
2022-12-01T11:30:20.900Z,19.32
2022-12-01T11:32:47.296Z,19.30
2022-12-01T11:35:13.673Z,19.28
2022-12-01T11:37:41.910Z,19.37
2022-12-01T11:40:08.428Z,19.30
2022-12-01T11:42:34.820Z,19.32
2022-12-01T11:45:01.199Z,19.35
2022-12-01T11:47:27.582Z,19.36
2022-12-01T11:49:54.114Z,19.40
2022-12-01T11:52:20.500Z,19.31
2022-12-01T11:54:46.903Z,19.35
2022-12-01T11:57:33.854Z,19.40
2022-12-01T11:59:59.647Z,19.35
2022-12-01T12:02:26.058Z,19.30
2022-12-01T12:04:52.451Z,19.29
2022-12-01T12:07:18.959Z,19.32
2022-12-01T12:09:45.430Z,19.33
2022-12-01T12:12:11.839Z,19.26
2022-12-01T12:14:38.230Z,19.33
2022-12-01T12:17:04.631Z,19.31
2022-12-01T12:19:34.329Z,19.37
2022-12-01T12:22:11.799Z,19.39
2022-12-01T12:24:38.188Z,19.35
2022-12-01T12:27:04.565Z,19.42
2022-12-01T12:29:30.944Z,19.35
2022-12-01T12:31:57.319Z,19.36
2022-12-01T12:34:23.709Z,19.34
2022-12-01T12:36:50.149Z,19.32
2022-12-01T12:39:17.130Z,19.32
2022-12-01T12:41:43.595Z,19.38
2022-12-01T12:44:09.996Z,19.38
2022-12-01T12:46:36.437Z,19.34
2022-12-01T12:49:19.095Z,19.29
2022-12-01T12:51:46.424Z,19.34
2022-12-01T12:54:12.976Z,19.36
2022-12-01T12:56:39.423Z,19.36
2022-12-01T12:59:05.796Z,19.35
2022-12-01T13:01:32.263Z,19.37
2022-12-01T13:03:58.751Z,19.35
2022-12-01T13:06:25.134Z,19.31
2022-12-01T13:08:51.516Z,19.34
2022-12-01T13:11:17.887Z,19.34
2022-12-01T13:13:44.273Z,19.35
2022-12-01T13:16:10.697Z,19.35
2022-12-01T13:18:37.101Z,19.32
2022-12-01T13:21:03.591Z,19.34
2022-12-01T13:23:29.964Z,19.32
2022-12-01T13:25:56.335Z,19.33
2022-12-01T13:28:22.720Z,19.37
2022-12-01T13:30:49.128Z,19.36
2022-12-01T13:33:15.581Z,19.36
2022-12-01T13:35:41.968Z,19.31
2022-12-01T13:38:08.365Z,19.33
2022-12-01T13:40:34.746Z,19.34
2022-12-01T13:43:05.494Z,19.36
2022-12-01T13:45:35.199Z,19.34
2022-12-01T13:48:01.566Z,19.33
2022-12-01T13:50:27.979Z,19.35
2022-12-01T13:52:54.368Z,19.31
2022-12-01T13:55:20.761Z,19.32
2022-12-01T13:57:47.146Z,19.30
2022-12-01T14:00:13.642Z,19.34
2022-12-01T14:02:40.282Z,19.31
2022-12-01T14:05:06.841Z,19.30
2022-12-01T14:07:33.295Z,19.30
2022-12-01T14:09:59.725Z,19.30
2022-12-01T14:12:26.106Z,19.29
2022-12-01T14:14:52.535Z,19.28
2022-12-01T14:17:18.912Z,19.30
2022-12-01T14:19:45.299Z,19.29
2022-12-01T14:22:11.678Z,19.29
2022-12-01T14:24:38.078Z,19.29
2022-12-01T14:27:04.458Z,19.27
2022-12-01T14:29:30.846Z,19.26
2022-12-01T14:31:57.218Z,19.26
2022-12-01T14:34:23.612Z,19.28
2022-12-01T14:36:50.000Z,19.25
2022-12-01T14:39:16.379Z,19.26
2022-12-01T14:41:42.757Z,19.28
2022-12-01T14:44:09.156Z,19.27
2022-12-01T14:46:35.600Z,19.25
2022-12-01T14:49:02.015Z,19.26
2022-12-01T14:51:28.397Z,19.28
2022-12-01T14:53:54.812Z,19.23
2022-12-01T14:56:21.202Z,19.23
2022-12-01T14:58:47.574Z,19.22
2022-12-01T15:01:14.056Z,19.27
2022-12-01T15:03:40.510Z,19.27
2022-12-01T15:06:06.885Z,19.24
2022-12-01T15:08:41.953Z,19.25
2022-12-01T15:11:12.570Z,19.27
2022-12-01T15:13:38.938Z,19.28
2022-12-01T15:16:05.347Z,19.29
2022-12-01T15:18:31.753Z,19.28
2022-12-01T15:20:58.138Z,19.22
2022-12-01T15:23:24.516Z,19.19
2022-12-01T15:25:50.898Z,19.21
2022-12-01T15:28:17.301Z,19.17
2022-12-01T15:30:43.670Z,19.19
2022-12-01T15:33:10.061Z,19.17
2022-12-01T15:35:36.452Z,19.14
2022-12-01T15:38:02.819Z,19.17
2022-12-01T15:43:15.566Z,19.25
2022-12-01T15:45:42.006Z,19.15
2022-12-01T15:48:08.490Z,19.18
2022-12-01T15:50:34.872Z,19.20
2022-12-01T15:53:01.256Z,19.15
2022-12-01T15:55:27.661Z,19.19
2022-12-01T15:57:54.038Z,19.19
2022-12-01T16:00:20.407Z,19.18
2022-12-01T16:02:47.067Z,19.19
2022-12-01T16:05:13.517Z,19.19
2022-12-01T16:08:11.590Z,19.16
2022-12-01T16:10:26.342Z,19.22
2022-12-01T16:12:52.742Z,19.18
2022-12-01T16:15:19.110Z,19.15
2022-12-01T16:17:45.505Z,19.16
2022-12-01T16:20:11.892Z,19.15
2022-12-01T16:22:38.272Z,19.21
2022-12-01T16:25:04.656Z,19.18
2022-12-01T16:27:31.058Z,19.17
2022-12-01T16:29:57.453Z,19.20
2022-12-01T16:32:23.893Z,19.18
2022-12-01T16:34:50.355Z,19.16
2022-12-01T16:37:16.744Z,19.17
2022-12-01T16:39:43.203Z,19.18
2022-12-01T16:42:09.659Z,19.19
2022-12-01T16:44:36.070Z,19.21
2022-12-01T16:47:02.447Z,19.22
2022-12-01T16:49:28.832Z,19.22
2022-12-01T16:51:56.838Z,19.20
2022-12-01T16:54:23.886Z,19.15
2022-12-01T16:56:50.363Z,19.14
2022-12-01T16:59:16.762Z,19.18
2022-12-01T17:01:43.211Z,19.18
2022-12-01T17:04:09.669Z,19.15
2022-12-01T17:06:36.038Z,19.16
2022-12-01T17:09:02.413Z,19.15
2022-12-01T17:11:28.805Z,19.15
2022-12-01T17:13:55.190Z,19.16
2022-12-01T17:16:21.625Z,19.17
2022-12-01T17:18:48.075Z,19.16
2022-12-01T17:21:14.450Z,19.15
2022-12-01T17:23:40.867Z,19.14
2022-12-01T17:26:07.263Z,19.17
2022-12-01T17:28:33.651Z,19.21
2022-12-01T17:31:00.135Z,19.18
2022-12-01T17:33:26.575Z,19.19
2022-12-01T17:35:52.946Z,19.22
2022-12-01T17:38:19.334Z,19.22
2022-12-01T17:40:45.703Z,19.22
2022-12-01T17:43:12.074Z,19.19
2022-12-01T17:45:38.439Z,19.21
2022-12-01T17:48:04.802Z,19.24
2022-12-01T17:50:31.189Z,19.20
2022-12-01T17:52:57.573Z,19.21
2022-12-01T17:55:23.952Z,19.18
2022-12-01T17:57:50.315Z,19.23
2022-12-01T18:00:16.702Z,19.23
2022-12-01T18:02:43.138Z,19.25
2022-12-01T18:05:09.617Z,19.23
2022-12-01T18:07:36.132Z,19.23
2022-12-01T18:10:02.583Z,19.26
2022-12-01T18:12:28.988Z,19.24
2022-12-01T18:14:55.360Z,19.21
2022-12-01T18:17:21.730Z,19.26
2022-12-01T18:19:48.110Z,19.25
2022-12-01T18:22:14.511Z,19.26
2022-12-01T18:24:40.897Z,19.27
2022-12-01T18:27:07.294Z,19.33
2022-12-01T18:29:33.673Z,19.25
2022-12-01T18:32:00.056Z,19.24
2022-12-01T18:34:26.431Z,19.26
2022-12-01T18:36:52.818Z,19.27
2022-12-01T18:39:19.209Z,19.29
2022-12-01T18:41:45.592Z,19.26
2022-12-01T18:44:11.984Z,19.30
2022-12-01T18:46:38.466Z,19.32
2022-12-01T18:49:04.918Z,19.24
2022-12-01T18:51:31.315Z,19.25
2022-12-01T18:53:57.715Z,19.26
2022-12-01T18:56:24.107Z,19.28
2022-12-01T18:58:50.489Z,19.27
2022-12-01T19:01:16.888Z,19.24
2022-12-01T19:03:43.289Z,19.25
2022-12-01T19:06:09.658Z,19.28
2022-12-01T19:08:36.050Z,19.27
2022-12-01T19:11:02.421Z,19.23
2022-12-01T19:13:28.822Z,19.19
2022-12-01T19:15:55.247Z,19.27
2022-12-01T19:18:21.643Z,19.26
2022-12-01T19:20:48.045Z,19.27
2022-12-01T19:23:14.447Z,19.27
2022-12-01T19:25:40.819Z,19.27
2022-12-01T19:28:07.186Z,19.28
2022-12-01T19:30:33.564Z,19.28
2022-12-01T19:32:59.953Z,19.28
2022-12-01T19:35:26.352Z,19.32
2022-12-01T19:37:52.728Z,19.28
2022-12-01T19:40:19.133Z,19.25
2022-12-01T19:42:45.545Z,19.28
2022-12-01T19:45:12.010Z,19.30
2022-12-01T19:47:38.395Z,19.29
2022-12-01T19:50:04.851Z,19.29
2022-12-01T19:52:31.242Z,19.26
2022-12-01T19:54:57.619Z,19.30
2022-12-01T19:57:24.004Z,19.29
2022-12-01T19:59:50.389Z,19.26
2022-12-01T20:02:16.816Z,19.29
2022-12-01T20:04:43.318Z,19.29
2022-12-01T20:07:09.723Z,19.30
2022-12-01T20:09:36.103Z,19.24
2022-12-01T20:12:02.491Z,19.24
2022-12-01T20:14:28.855Z,19.24
2022-12-01T20:16:55.325Z,19.25
2022-12-01T20:19:21.810Z,19.18
2022-12-01T20:21:48.198Z,19.17
2022-12-01T20:24:14.567Z,19.21
2022-12-01T20:26:40.949Z,19.20
2022-12-01T20:29:07.324Z,19.22
2022-12-01T20:31:33.769Z,19.20
2022-12-01T20:34:00.176Z,19.26
2022-12-01T20:36:26.573Z,19.26
2022-12-01T20:38:52.970Z,19.25
2022-12-01T20:41:19.359Z,19.25
2022-12-01T20:43:45.734Z,19.31
2022-12-01T20:46:12.149Z,19.37
2022-12-01T20:48:38.591Z,19.39
2022-12-01T20:51:04.988Z,19.35
2022-12-01T20:53:31.379Z,19.34
2022-12-01T20:55:57.747Z,19.34
2022-12-01T20:58:24.130Z,19.35
2022-12-01T21:00:50.554Z,19.36
2022-12-01T21:03:16.959Z,19.39
2022-12-01T21:05:43.334Z,19.41
2022-12-01T21:08:09.761Z,19.40
2022-12-01T21:10:36.262Z,19.40
2022-12-01T21:13:02.630Z,19.40
2022-12-01T21:15:29.012Z,19.38
2022-12-01T21:17:55.398Z,19.37
2022-12-01T21:20:21.897Z,19.37
2022-12-01T21:22:48.455Z,19.43
2022-12-01T21:25:14.941Z,19.40
2022-12-01T21:27:41.327Z,19.39
2022-12-01T21:30:07.704Z,19.42
2022-12-01T21:32:34.086Z,19.41
2022-12-01T21:35:00.476Z,19.38
2022-12-01T21:37:26.855Z,19.36
2022-12-01T21:39:53.232Z,19.41
2022-12-01T21:42:19.624Z,19.39
2022-12-01T21:44:45.999Z,19.39
2022-12-01T21:47:12.380Z,19.37
2022-12-01T21:49:38.766Z,19.41
2022-12-01T21:52:05.154Z,19.41
2022-12-01T21:54:31.523Z,19.43
2022-12-01T21:56:57.900Z,19.39
2022-12-01T21:59:24.259Z,19.37
2022-12-01T22:01:50.700Z,19.35
2022-12-01T22:04:17.114Z,19.37
2022-12-01T22:06:43.481Z,19.36
2022-12-01T22:09:09.851Z,19.37
2022-12-01T22:11:36.235Z,19.36
2022-12-01T22:14:02.624Z,19.40
2022-12-01T22:16:29.005Z,19.36
2022-12-01T22:18:55.402Z,19.35
2022-12-01T22:21:21.790Z,19.34
2022-12-01T22:23:48.176Z,19.36
2022-12-01T22:26:14.561Z,19.43
2022-12-01T22:28:40.970Z,19.36
2022-12-01T22:31:07.349Z,19.37
2022-12-01T22:33:33.775Z,19.35
2022-12-01T22:36:00.171Z,19.31
2022-12-01T22:38:26.559Z,19.30
2022-12-01T22:40:52.943Z,19.26
2022-12-01T22:43:19.337Z,19.27
2022-12-01T22:45:45.719Z,19.42
2022-12-01T22:48:12.100Z,19.53
2022-12-01T22:50:38.482Z,19.53
2022-12-01T22:53:04.869Z,19.60
2022-12-01T22:55:31.241Z,19.47
2022-12-01T22:57:57.613Z,19.46
2022-12-01T23:00:24.012Z,19.47
2022-12-01T23:02:50.447Z,19.71
2022-12-01T23:05:16.891Z,19.73
2022-12-01T23:07:43.307Z,19.70
2022-12-01T23:10:09.731Z,19.70
2022-12-01T23:12:36.122Z,19.64
2022-12-01T23:15:02.523Z,19.53
2022-12-01T23:17:28.892Z,19.56
2022-12-01T23:19:55.291Z,19.57
2022-12-01T23:22:21.660Z,19.64
2022-12-01T23:24:48.247Z,19.69
2022-12-01T23:27:14.882Z,19.61
2022-12-01T23:29:41.251Z,19.66
2022-12-01T23:32:07.641Z,19.61
2022-12-01T23:34:34.078Z,19.64
2022-12-01T23:37:00.469Z,19.63
2022-12-01T23:39:26.866Z,19.66
2022-12-01T23:41:53.252Z,19.71
2022-12-01T23:44:19.660Z,19.65
2022-12-01T23:46:46.120Z,19.65
2022-12-01T23:49:12.566Z,19.66
2022-12-01T23:51:38.962Z,19.72
2022-12-01T23:54:05.347Z,19.77
2022-12-01T23:56:31.711Z,19.69
2022-12-01T23:58:58.094Z,19.61
